createdAt,value
2019-03-09T00:00:19.978Z,7.91
2019-03-09T00:01:19.906Z,7.76
2019-03-09T00:02:19.840Z,7.78
2019-03-09T00:03:19.778Z,7.73
2019-03-09T00:04:19.711Z,7.81
2019-03-09T00:05:19.643Z,7.76
2019-03-09T00:06:19.578Z,7.92
2019-03-09T00:07:19.514Z,7.83
2019-03-09T00:08:19.445Z,7.91
2019-03-09T00:09:19.383Z,7.87
2019-03-09T00:10:19.317Z,7.91
2019-03-09T00:11:19.254Z,7.87
2019-03-09T00:12:19.188Z,7.86
2019-03-09T00:13:19.120Z,7.84
2019-03-09T00:14:19.053Z,7.87
2019-03-09T00:15:18.989Z,7.87
2019-03-09T00:16:18.923Z,7.91
2019-03-09T00:17:18.857Z,7.88
2019-03-09T00:18:18.793Z,7.87
2019-03-09T00:19:18.726Z,7.92
2019-03-09T00:20:18.660Z,7.87
2019-03-09T00:21:18.594Z,7.88
2019-03-09T00:22:18.527Z,7.91
2019-03-09T00:23:18.464Z,7.95
2019-03-09T00:24:18.398Z,7.92
2019-03-09T00:25:18.339Z,7.84
2019-03-09T00:26:18.268Z,7.77
2019-03-09T00:27:18.202Z,7.81
2019-03-09T00:28:18.136Z,7.84
2019-03-09T00:29:18.070Z,7.74
2019-03-09T00:30:18.007Z,7.76
2019-03-09T00:31:17.938Z,7.78
2019-03-09T00:32:17.871Z,7.77
2019-03-09T00:33:17.809Z,7.74
2019-03-09T00:34:17.742Z,7.80
2019-03-09T00:35:17.674Z,7.78
2019-03-09T00:36:17.609Z,7.78
2019-03-09T00:37:17.545Z,7.80
2019-03-09T00:38:17.478Z,7.77
2019-03-09T00:39:17.414Z,7.78
2019-03-09T00:40:17.351Z,7.88
2019-03-09T00:41:17.282Z,7.73
2019-03-09T00:42:17.213Z,7.91
2019-03-09T00:43:17.151Z,7.88
2019-03-09T00:44:17.088Z,7.91
2019-03-09T00:45:17.019Z,7.91
2019-03-09T00:46:16.955Z,7.88
2019-03-09T00:47:16.888Z,7.92
2019-03-09T00:48:16.834Z,7.88
2019-03-09T00:49:16.757Z,7.91
2019-03-09T00:50:16.693Z,7.87
2019-03-09T00:51:16.626Z,7.83
2019-03-09T00:52:16.564Z,7.83
2019-03-09T00:53:16.492Z,7.87
2019-03-09T00:54:16.429Z,7.83
2019-03-09T00:55:16.369Z,7.91
2019-03-09T00:56:16.296Z,7.91
2019-03-09T00:57:16.232Z,7.86
2019-03-09T00:58:16.169Z,7.88
2019-03-09T00:59:16.103Z,7.84
2019-03-09T01:00:16.034Z,7.78
2019-03-09T01:01:15.971Z,7.83
2019-03-09T01:02:15.951Z,7.77
2019-03-09T01:03:15.845Z,7.74
2019-03-09T01:04:15.775Z,7.76
2019-03-09T01:05:15.709Z,7.84
2019-03-09T01:06:15.640Z,7.78
2019-03-09T01:07:15.577Z,7.73
2019-03-09T01:08:15.511Z,7.80
2019-03-09T01:09:15.447Z,7.78
2019-03-09T01:10:15.377Z,7.69
2019-03-09T01:11:15.313Z,7.76
2019-03-09T01:12:15.248Z,7.69
2019-03-09T01:13:15.182Z,7.80
2019-03-09T01:14:15.118Z,7.74
2019-03-09T01:15:15.050Z,7.76
2019-03-09T01:16:14.982Z,7.69
2019-03-09T01:17:14.917Z,7.68
2019-03-09T01:18:14.852Z,7.71
2019-03-09T01:19:14.785Z,7.73
2019-03-09T01:20:14.720Z,7.68
2019-03-09T01:21:14.654Z,7.66
2019-03-09T01:22:14.588Z,7.76
2019-03-09T01:23:14.523Z,7.71
2019-03-09T01:24:14.458Z,7.74
2019-03-09T01:25:14.389Z,7.68
2019-03-09T01:26:14.331Z,7.71
2019-03-09T01:27:14.256Z,7.74
2019-03-09T01:28:14.194Z,7.68
2019-03-09T01:29:14.127Z,7.61
2019-03-09T01:30:14.062Z,7.69
2019-03-09T01:31:14.001Z,7.74
2019-03-09T01:32:13.933Z,7.74
2019-03-09T01:33:13.869Z,7.66
2019-03-09T01:34:13.800Z,7.73
2019-03-09T01:35:13.733Z,7.68
2019-03-09T01:36:13.672Z,7.74
2019-03-09T01:37:13.601Z,7.73
2019-03-09T01:38:13.535Z,7.74
2019-03-09T01:39:13.469Z,7.76
2019-03-09T01:40:13.405Z,7.68
2019-03-09T01:41:13.339Z,7.78
2019-03-09T01:42:13.275Z,7.69
2019-03-09T01:43:13.209Z,7.64
2019-03-09T01:44:13.141Z,7.77
2019-03-09T01:45:13.075Z,7.77
2019-03-09T01:46:13.009Z,7.80
2019-03-09T01:47:12.944Z,7.77
2019-03-09T01:48:12.880Z,7.73
2019-03-09T01:49:12.827Z,7.77
2019-03-09T01:50:12.743Z,7.76
2019-03-09T01:51:12.680Z,7.77
2019-03-09T01:52:12.614Z,7.80
2019-03-09T01:53:12.549Z,7.77
2019-03-09T01:54:12.482Z,7.76
2019-03-09T01:55:12.418Z,7.80
2019-03-09T01:56:12.352Z,7.83
2019-03-09T01:57:12.286Z,7.87
2019-03-09T01:58:12.217Z,7.77
2019-03-09T01:59:12.154Z,7.87
2019-03-09T02:00:12.088Z,7.88
2019-03-09T02:01:12.023Z,7.88
2019-03-09T02:02:11.957Z,7.86
2019-03-09T02:03:11.889Z,7.86
2019-03-09T02:04:11.826Z,7.77
2019-03-09T02:05:11.757Z,7.95
2019-03-09T02:06:11.691Z,7.91
2019-03-09T02:07:11.627Z,7.92
2019-03-09T02:08:11.561Z,7.99
2019-03-09T02:09:11.529Z,7.99
2019-03-09T02:10:11.427Z,7.87
2019-03-09T02:11:11.370Z,7.87
2019-03-09T02:12:11.298Z,7.86
2019-03-09T02:13:11.232Z,7.92
2019-03-09T02:14:11.165Z,7.92
2019-03-09T02:15:11.100Z,7.92
2019-03-09T02:16:11.034Z,7.99
2019-03-09T02:17:10.977Z,8.01
2019-03-09T02:18:10.905Z,8.04
2019-03-09T02:19:10.839Z,8.02
2019-03-09T02:20:10.771Z,8.10
2019-03-09T02:21:10.709Z,8.04
2019-03-09T02:22:10.642Z,8.01
2019-03-09T02:23:10.573Z,8.06
2019-03-09T02:24:10.507Z,8.06
2019-03-09T02:25:10.441Z,8.13
2019-03-09T02:26:10.375Z,8.14
2019-03-09T02:27:10.312Z,8.17
2019-03-09T02:28:10.246Z,8.17
2019-03-09T02:29:10.181Z,8.10
2019-03-09T02:30:10.114Z,8.10
2019-03-09T02:31:10.054Z,8.12
2019-03-09T02:32:09.982Z,8.12
2019-03-09T02:33:09.917Z,8.10
2019-03-09T02:34:09.853Z,8.13
2019-03-09T02:35:09.790Z,8.23
2019-03-09T02:36:09.720Z,8.26
2019-03-09T02:37:09.654Z,8.32
2019-03-09T02:38:09.591Z,8.31
2019-03-09T02:39:09.521Z,8.35
2019-03-09T02:40:09.458Z,8.32
2019-03-09T02:41:09.390Z,8.34
2019-03-09T02:42:09.329Z,8.32
2019-03-09T02:43:09.263Z,8.34
2019-03-09T02:44:09.199Z,8.31
2019-03-09T02:45:09.129Z,8.31
2019-03-09T02:46:09.062Z,8.32
2019-03-09T02:47:08.998Z,8.29
2019-03-09T02:48:08.931Z,8.26
2019-03-09T02:49:08.867Z,8.31
2019-03-09T02:50:08.804Z,8.29
2019-03-09T02:51:08.736Z,8.31
2019-03-09T02:52:08.669Z,8.31
2019-03-09T02:53:08.605Z,8.23
2019-03-09T02:54:08.539Z,8.29
2019-03-09T02:55:08.555Z,8.29
2019-03-09T02:56:08.410Z,8.34
2019-03-09T02:57:08.344Z,8.28
2019-03-09T02:58:08.281Z,8.31
2019-03-09T02:59:08.213Z,8.34
2019-03-09T03:00:08.150Z,8.28
2019-03-09T03:01:08.081Z,8.32
2019-03-09T03:02:08.026Z,8.24
2019-03-09T03:03:07.955Z,8.31
2019-03-09T03:04:07.883Z,8.31
2019-03-09T03:05:07.819Z,8.34
2019-03-09T03:06:07.752Z,8.32
2019-03-09T03:07:07.689Z,8.34
2019-03-09T03:08:07.620Z,8.39
2019-03-09T03:09:07.556Z,8.32
2019-03-09T03:10:07.492Z,8.37
2019-03-09T03:11:07.424Z,8.41
2019-03-09T03:12:07.360Z,8.34
2019-03-09T03:13:07.293Z,8.34
2019-03-09T03:14:07.228Z,8.39
2019-03-09T03:15:07.163Z,8.39
2019-03-09T03:16:07.096Z,8.50
2019-03-09T03:17:07.034Z,8.46
2019-03-09T03:18:06.968Z,8.34
2019-03-09T03:19:06.899Z,8.39
2019-03-09T03:20:06.844Z,8.46
2019-03-09T03:21:06.770Z,8.44
2019-03-09T03:22:06.703Z,8.46
2019-03-09T03:23:06.636Z,8.46
2019-03-09T03:24:06.573Z,8.44
2019-03-09T03:25:06.569Z,8.41
2019-03-09T03:26:06.440Z,8.44
2019-03-09T03:27:06.378Z,8.39
2019-03-09T03:28:06.311Z,8.37
2019-03-09T03:29:06.246Z,8.34
2019-03-09T03:30:06.180Z,8.38
2019-03-09T03:31:06.115Z,8.42
2019-03-09T03:32:06.051Z,8.37
2019-03-09T03:33:05.983Z,8.35
2019-03-09T03:34:05.939Z,8.41
2019-03-09T03:35:05.938Z,8.34
2019-03-09T03:36:05.787Z,8.32
2019-03-09T03:37:05.719Z,8.35
2019-03-09T03:38:05.662Z,8.35
2019-03-09T03:39:05.588Z,8.26
2019-03-09T03:40:05.525Z,8.37
2019-03-09T03:41:05.459Z,8.34
2019-03-09T03:42:05.393Z,8.39
2019-03-09T03:43:05.328Z,8.42
2019-03-09T03:44:05.266Z,8.50
2019-03-09T03:45:05.196Z,8.46
2019-03-09T03:46:05.128Z,8.37
2019-03-09T03:47:05.063Z,8.37
2019-03-09T03:48:05.001Z,8.37
2019-03-09T03:49:04.935Z,8.35
2019-03-09T03:50:04.875Z,8.37
2019-03-09T03:51:04.803Z,8.39
2019-03-09T03:52:04.737Z,8.38
2019-03-09T03:53:04.672Z,8.35
2019-03-09T03:54:04.609Z,8.41
2019-03-09T03:55:04.542Z,8.42
2019-03-09T03:56:04.476Z,8.37
2019-03-09T03:57:04.411Z,8.38
2019-03-09T03:58:04.345Z,8.38
2019-03-09T03:59:04.281Z,8.37
2019-03-09T04:00:04.215Z,8.39
2019-03-09T04:01:04.149Z,8.44
2019-03-09T04:02:04.085Z,8.41
2019-03-09T04:03:04.025Z,8.38
2019-03-09T04:04:03.953Z,8.39
2019-03-09T04:05:03.889Z,8.39
2019-03-09T04:06:03.838Z,8.39
2019-03-09T04:07:03.763Z,8.49
2019-03-09T04:08:03.689Z,8.47
2019-03-09T04:09:03.630Z,8.44
2019-03-09T04:10:03.563Z,8.49
2019-03-09T04:11:05.943Z,8.38
2019-03-09T04:12:03.430Z,8.39
2019-03-09T04:13:03.367Z,8.41
2019-03-09T04:14:03.299Z,8.39
2019-03-09T04:15:03.235Z,8.35
2019-03-09T04:16:03.166Z,8.42
2019-03-09T04:17:03.102Z,8.32
2019-03-09T04:18:03.056Z,8.37
2019-03-09T04:19:02.973Z,8.38
2019-03-09T04:20:02.906Z,8.38
2019-03-09T04:21:02.841Z,8.37
2019-03-09T04:22:02.775Z,8.34
2019-03-09T04:23:02.712Z,8.37
2019-03-09T04:24:02.643Z,8.26
2019-03-09T04:25:02.579Z,8.34
2019-03-09T04:26:02.523Z,8.34
2019-03-09T04:27:02.448Z,8.34
2019-03-09T04:28:02.380Z,8.32
2019-03-09T04:29:02.322Z,8.37
2019-03-09T04:30:02.257Z,8.31
2019-03-09T04:31:02.198Z,8.31
2019-03-09T04:32:02.118Z,8.24
2019-03-09T04:33:02.055Z,8.29
2019-03-09T04:34:01.990Z,8.28
2019-03-09T04:35:01.925Z,8.26
2019-03-09T04:36:01.856Z,8.34
2019-03-09T04:37:01.795Z,8.37
2019-03-09T04:38:01.733Z,8.31
2019-03-09T04:39:01.668Z,8.37
2019-03-09T04:40:01.596Z,8.32
2019-03-09T04:41:01.529Z,8.37
2019-03-09T04:42:01.465Z,8.35
2019-03-09T04:43:01.394Z,8.32
2019-03-09T04:44:01.336Z,8.31
2019-03-09T04:45:01.267Z,8.28
2019-03-09T04:46:01.200Z,8.19
2019-03-09T04:47:01.136Z,8.19
2019-03-09T04:48:01.069Z,8.26
2019-03-09T04:49:01.007Z,8.26
2019-03-09T04:50:00.941Z,8.17
2019-03-09T04:51:00.871Z,8.23
2019-03-09T04:52:00.809Z,8.20
2019-03-09T04:53:00.740Z,8.21
2019-03-09T04:54:00.676Z,8.23
2019-03-09T04:55:00.613Z,8.31
2019-03-09T04:56:00.547Z,8.29
2019-03-09T04:57:00.478Z,8.28
2019-03-09T04:58:00.412Z,8.24
2019-03-09T04:59:00.347Z,8.23
2019-03-09T05:00:00.321Z,8.32
2019-03-09T05:01:00.218Z,8.34
2019-03-09T05:02:00.153Z,8.34
2019-03-09T05:03:00.087Z,8.35
2019-03-09T05:04:00.023Z,8.35
2019-03-09T05:04:59.955Z,8.32
2019-03-09T05:05:59.891Z,8.37
2019-03-09T05:06:59.840Z,8.24
2019-03-09T05:07:59.760Z,8.32
2019-03-09T05:08:59.693Z,8.32
2019-03-09T05:09:59.628Z,8.32
2019-03-09T05:10:59.564Z,8.31
2019-03-09T05:11:59.500Z,8.29
2019-03-09T05:12:59.431Z,8.37
2019-03-09T05:13:59.366Z,8.31
2019-03-09T05:14:59.302Z,8.35
2019-03-09T05:15:59.240Z,8.32
2019-03-09T05:16:59.181Z,8.31
2019-03-09T05:17:59.110Z,8.29
2019-03-09T05:18:59.042Z,8.32
2019-03-09T05:19:58.974Z,8.34
2019-03-09T05:20:58.906Z,8.37
2019-03-09T05:21:58.906Z,8.37
2019-03-09T05:22:58.778Z,8.41
2019-03-09T05:23:58.714Z,8.37
2019-03-09T05:24:58.646Z,8.47
2019-03-09T05:25:58.576Z,8.46
2019-03-09T05:26:58.512Z,8.49
2019-03-09T05:27:58.453Z,8.46
2019-03-09T05:28:58.384Z,8.50
2019-03-09T05:29:58.318Z,8.38
2019-03-09T05:30:58.253Z,8.41
2019-03-09T05:31:58.188Z,8.34
2019-03-09T05:32:58.122Z,8.31
2019-03-09T05:33:58.057Z,8.46
2019-03-09T05:34:57.992Z,8.44
2019-03-09T05:35:57.923Z,8.37
2019-03-09T05:36:57.861Z,8.55
2019-03-09T05:37:57.794Z,8.49
2019-03-09T05:38:57.728Z,8.55
2019-03-09T05:39:57.665Z,8.39
2019-03-09T05:40:57.595Z,8.52
2019-03-09T05:41:57.534Z,8.55
2019-03-09T05:42:57.467Z,8.49
2019-03-09T05:43:57.402Z,8.39
2019-03-09T05:44:57.335Z,8.44
2019-03-09T05:45:57.270Z,8.47
2019-03-09T05:46:57.203Z,8.55
2019-03-09T05:47:57.138Z,8.44
2019-03-09T05:48:57.074Z,8.52
2019-03-09T05:49:57.007Z,8.56
2019-03-09T05:50:56.942Z,8.52
2019-03-09T05:51:56.877Z,8.57
2019-03-09T05:52:56.811Z,8.59
2019-03-09T05:53:56.751Z,8.57
2019-03-09T05:54:56.681Z,8.59
2019-03-09T05:55:56.620Z,8.57
2019-03-09T05:56:56.552Z,8.60
2019-03-09T05:57:56.482Z,8.57
2019-03-09T05:58:56.436Z,8.60
2019-03-09T05:59:56.353Z,8.60
2019-03-09T06:00:56.289Z,8.70
2019-03-09T06:01:56.221Z,8.62
2019-03-09T06:02:56.157Z,8.56
2019-03-09T06:03:56.093Z,8.67
2019-03-09T06:04:56.025Z,8.67
2019-03-09T06:05:55.960Z,8.65
2019-03-09T06:06:55.895Z,8.74
2019-03-09T06:07:55.832Z,8.72
2019-03-09T06:08:55.763Z,8.71
2019-03-09T06:09:55.701Z,8.70
2019-03-09T06:10:55.635Z,8.65
2019-03-09T06:11:55.567Z,8.67
2019-03-09T06:12:55.504Z,8.65
2019-03-09T06:13:55.435Z,8.72
2019-03-09T06:14:55.371Z,8.81
2019-03-09T06:15:55.306Z,8.85
2019-03-09T06:16:55.244Z,8.83
2019-03-09T06:17:55.174Z,8.88
2019-03-09T06:18:55.108Z,8.90
2019-03-09T06:19:55.047Z,8.89
2019-03-09T06:20:55.023Z,8.93
2019-03-09T06:21:54.911Z,8.92
2019-03-09T06:22:54.874Z,8.86
2019-03-09T06:23:54.785Z,8.92
2019-03-09T06:24:54.716Z,8.85
2019-03-09T06:25:54.686Z,8.89
2019-03-09T06:26:54.586Z,8.86
2019-03-09T06:27:54.519Z,8.90
2019-03-09T06:28:54.456Z,8.96
2019-03-09T06:29:54.389Z,8.90
2019-03-09T06:30:54.329Z,8.92
2019-03-09T06:31:54.258Z,8.89
2019-03-09T06:32:54.197Z,8.83
2019-03-09T06:33:54.127Z,8.81
2019-03-09T06:34:54.065Z,8.80
2019-03-09T06:35:54.000Z,8.75
2019-03-09T06:36:53.941Z,8.80
2019-03-09T06:37:55.777Z,8.77
2019-03-09T06:38:53.799Z,8.75
2019-03-09T06:39:53.735Z,8.75
2019-03-09T06:41:02.517Z,8.80
2019-03-09T06:41:53.604Z,8.78
2019-03-09T06:42:53.551Z,8.72
2019-03-09T06:43:53.473Z,8.74
2019-03-09T06:44:53.409Z,8.68
2019-03-09T06:45:53.342Z,8.83
2019-03-09T06:46:53.276Z,8.72
2019-03-09T06:47:53.349Z,8.74
2019-03-09T06:48:53.146Z,8.71
2019-03-09T06:49:53.083Z,8.59
2019-03-09T06:50:53.012Z,8.57
2019-03-09T06:51:52.960Z,8.46
2019-03-09T06:52:52.884Z,8.49
2019-03-09T06:53:52.823Z,8.46
2019-03-09T06:54:52.752Z,8.53
2019-03-09T06:55:52.687Z,8.46
2019-03-09T06:56:52.622Z,8.55
2019-03-09T06:57:52.577Z,8.49
2019-03-09T06:58:52.488Z,8.55
2019-03-09T06:59:52.428Z,8.55
2019-03-09T07:00:52.361Z,8.46
2019-03-09T07:01:52.294Z,8.49
2019-03-09T07:02:52.230Z,8.50
2019-03-09T07:03:52.167Z,8.57
2019-03-09T07:04:52.098Z,8.50
2019-03-09T07:05:52.033Z,8.60
2019-03-09T07:06:51.967Z,8.59
2019-03-09T07:07:51.902Z,8.55
2019-03-09T07:08:51.840Z,8.56
2019-03-09T07:09:51.771Z,8.70
2019-03-09T07:10:51.717Z,8.74
2019-03-09T07:11:51.642Z,8.70
2019-03-09T07:12:51.578Z,8.71
2019-03-09T07:13:53.211Z,8.74
2019-03-09T07:14:51.441Z,8.75
2019-03-09T07:15:51.385Z,8.70
2019-03-09T07:16:51.310Z,8.77
2019-03-09T07:17:51.251Z,8.65
2019-03-09T07:18:51.187Z,8.70
2019-03-09T07:19:51.118Z,8.65
2019-03-09T07:20:51.051Z,8.74
2019-03-09T07:21:50.984Z,8.60
2019-03-09T07:22:50.927Z,8.60
2019-03-09T07:23:50.855Z,8.57
2019-03-09T07:24:50.796Z,8.57
2019-03-09T07:25:50.725Z,8.55
2019-03-09T07:26:50.661Z,8.60
2019-03-09T07:27:50.593Z,8.72
2019-03-09T07:28:50.528Z,8.71
2019-03-09T07:29:50.462Z,8.72
2019-03-09T07:30:50.399Z,8.72
2019-03-09T07:31:50.329Z,8.83
2019-03-09T07:32:50.266Z,8.85
2019-03-09T07:33:50.202Z,8.88
2019-03-09T07:34:50.137Z,8.92
2019-03-09T07:35:50.072Z,8.92
2019-03-09T07:36:50.004Z,8.85
2019-03-09T07:37:49.939Z,8.92
2019-03-09T07:38:49.877Z,8.90
2019-03-09T07:39:49.808Z,8.95
2019-03-09T07:40:49.746Z,8.90
2019-03-09T07:41:49.676Z,8.98
2019-03-09T07:42:49.613Z,9.08
2019-03-09T07:43:49.547Z,9.03
2019-03-09T07:44:49.484Z,9.09
2019-03-09T07:45:49.419Z,9.09
2019-03-09T07:46:49.352Z,9.11
2019-03-09T07:47:49.284Z,9.11
2019-03-09T07:48:49.223Z,9.12
2019-03-09T07:49:49.156Z,9.09
2019-03-09T07:50:49.092Z,9.15
2019-03-09T07:51:49.027Z,9.16
2019-03-09T07:52:48.960Z,9.32
2019-03-09T07:53:48.897Z,9.27
2019-03-09T07:54:48.833Z,9.22
2019-03-09T07:55:48.770Z,9.16
2019-03-09T07:56:48.698Z,9.08
2019-03-09T07:57:48.639Z,9.22
2019-03-09T07:58:48.571Z,9.23
2019-03-09T07:59:48.507Z,9.16
2019-03-09T08:00:48.440Z,9.16
2019-03-09T08:01:48.377Z,9.15
2019-03-09T08:02:48.312Z,9.16
2019-03-09T08:03:48.244Z,9.19
2019-03-09T08:04:48.180Z,9.32
2019-03-09T08:05:48.169Z,9.19
2019-03-09T08:06:48.049Z,9.18
2019-03-09T08:07:47.986Z,9.18
2019-03-09T08:08:47.917Z,9.16
2019-03-09T08:09:47.863Z,9.29
2019-03-09T08:10:47.789Z,9.30
2019-03-09T08:11:47.723Z,9.26
2019-03-09T08:12:47.658Z,9.26
2019-03-09T08:13:47.594Z,9.29
2019-03-09T08:14:47.539Z,9.27
2019-03-09T08:15:47.465Z,9.30
2019-03-09T08:16:47.397Z,9.40
2019-03-09T08:17:47.337Z,9.34
2019-03-09T08:18:47.289Z,9.33
2019-03-09T08:19:47.210Z,9.40
2019-03-09T08:20:47.136Z,9.51
2019-03-09T08:21:47.075Z,9.36
2019-03-09T08:22:47.012Z,9.42
2019-03-09T08:23:46.960Z,9.37
2019-03-09T08:24:46.887Z,9.47
2019-03-09T08:25:46.818Z,9.54
2019-03-09T08:26:46.749Z,9.54
2019-03-09T08:27:46.685Z,9.60
2019-03-09T08:28:46.616Z,9.54
2019-03-09T08:29:46.554Z,9.65
2019-03-09T08:30:46.511Z,9.69
2019-03-09T08:31:46.422Z,9.73
2019-03-09T08:32:46.358Z,9.80
2019-03-09T08:33:46.298Z,9.83
2019-03-09T08:34:46.229Z,9.78
2019-03-09T08:35:46.178Z,9.88
2019-03-09T08:36:46.097Z,9.83
2019-03-09T08:37:46.036Z,9.87
2019-03-09T08:38:45.968Z,9.87
2019-03-09T08:39:45.912Z,9.91
2019-03-09T08:40:45.848Z,9.96
2019-03-09T08:41:45.776Z,9.94
2019-03-09T08:42:45.731Z,9.98
2019-03-09T08:43:45.645Z,9.94
2019-03-09T08:44:45.586Z,9.99
2019-03-09T08:45:45.519Z,9.98
2019-03-09T08:46:45.453Z,9.98
2019-03-09T08:47:52.210Z,9.85
2019-03-09T08:48:45.348Z,10.01
2019-03-09T08:49:45.263Z,9.91
2019-03-09T08:50:45.220Z,9.84
2019-03-09T08:51:45.156Z,9.81
2019-03-09T08:52:45.106Z,9.87
2019-03-09T08:53:45.036Z,9.78
2019-03-09T08:54:44.935Z,9.77
2019-03-09T08:55:44.896Z,9.88
2019-03-09T08:56:44.802Z,9.96
2019-03-09T08:57:44.770Z,9.85
2019-03-09T08:58:44.694Z,9.91
2019-03-09T08:59:44.638Z,9.98
2019-03-09T09:00:44.548Z,9.98
2019-03-09T09:01:44.482Z,10.08
2019-03-09T09:02:44.414Z,10.12
2019-03-09T09:03:44.353Z,10.10
2019-03-09T09:04:44.287Z,10.26
2019-03-09T09:05:44.229Z,10.42
2019-03-09T09:06:44.160Z,10.45
2019-03-09T09:07:44.094Z,10.57
2019-03-09T09:08:44.030Z,10.64
2019-03-09T09:09:43.969Z,10.67
2019-03-09T09:10:43.903Z,10.64
2019-03-09T09:11:43.839Z,10.70
2019-03-09T09:12:45.540Z,10.67
2019-03-09T09:13:43.709Z,10.62
2019-03-09T09:14:43.646Z,10.72
2019-03-09T09:15:43.584Z,10.67
2019-03-09T09:16:43.512Z,10.70
2019-03-09T09:17:43.454Z,10.64
2019-03-09T09:18:43.458Z,10.65
2019-03-09T09:19:43.328Z,10.68
2019-03-09T09:20:43.258Z,10.80
2019-03-09T09:21:43.202Z,10.90
2019-03-09T09:22:43.144Z,10.83
2019-03-09T09:23:43.067Z,10.82
2019-03-09T09:24:43.021Z,10.82
2019-03-09T09:25:42.940Z,10.90
2019-03-09T09:26:42.875Z,10.87
2019-03-09T09:27:42.812Z,10.83
2019-03-09T09:28:42.748Z,10.83
2019-03-09T09:29:42.687Z,10.86
2019-03-09T09:30:42.623Z,10.82
2019-03-09T09:31:42.557Z,10.87
2019-03-09T09:32:42.495Z,10.94
2019-03-09T09:33:42.434Z,10.93
2019-03-09T09:34:42.367Z,11.00
2019-03-09T09:35:42.299Z,11.04
2019-03-09T09:36:42.239Z,11.01
2019-03-09T09:37:42.171Z,10.97
2019-03-09T09:38:42.108Z,10.93
2019-03-09T09:39:42.045Z,11.00
2019-03-09T09:40:41.976Z,11.04
2019-03-09T09:41:41.920Z,11.03
2019-03-09T09:42:41.853Z,11.09
2019-03-09T09:43:41.788Z,11.11
2019-03-09T09:44:41.726Z,11.09
2019-03-09T09:45:41.660Z,11.09
2019-03-09T09:46:41.599Z,11.01
2019-03-09T09:47:42.611Z,11.08
2019-03-09T09:48:41.470Z,11.03
2019-03-09T09:49:41.405Z,11.03
2019-03-09T09:50:41.345Z,11.05
2019-03-09T09:51:41.277Z,10.97
2019-03-09T09:52:41.222Z,11.15
2019-03-09T09:53:41.156Z,11.33
2019-03-09T09:54:41.086Z,11.40
2019-03-09T09:55:41.024Z,11.41
2019-03-09T09:56:40.959Z,11.45
2019-03-09T09:57:40.893Z,11.48
2019-03-09T09:58:40.833Z,11.48
2019-03-09T09:59:40.774Z,11.46
2019-03-09T10:00:40.706Z,11.49
2019-03-09T10:01:40.645Z,11.52
2019-03-09T10:02:40.575Z,11.45
2019-03-09T10:03:40.513Z,11.43
2019-03-09T10:04:40.451Z,11.34
2019-03-09T10:05:40.387Z,11.45
2019-03-09T10:06:40.333Z,11.45
2019-03-09T10:07:40.255Z,11.43
2019-03-09T10:08:40.195Z,11.34
2019-03-09T10:09:40.132Z,11.40
2019-03-09T10:10:40.070Z,11.41
2019-03-09T10:11:40.004Z,11.46
2019-03-09T10:12:39.939Z,11.40
2019-03-09T10:13:39.878Z,11.37
2019-03-09T10:14:39.814Z,11.34
2019-03-09T10:15:39.752Z,11.16
2019-03-09T10:16:39.685Z,11.23
2019-03-09T10:17:39.623Z,11.25
2019-03-09T10:18:39.560Z,11.22
2019-03-09T10:19:39.516Z,11.36
2019-03-09T10:20:39.431Z,11.31
2019-03-09T10:21:39.374Z,11.23
2019-03-09T10:22:39.303Z,11.16
2019-03-09T10:23:39.241Z,11.18
2019-03-09T10:24:39.177Z,11.19
2019-03-09T10:25:39.118Z,11.16
2019-03-09T10:26:39.049Z,11.27
2019-03-09T10:27:38.991Z,11.41
2019-03-09T10:28:38.926Z,11.51
2019-03-09T10:29:38.859Z,11.56
2019-03-09T10:30:38.796Z,11.56
2019-03-09T10:31:38.733Z,11.61
2019-03-09T10:32:38.672Z,11.58
2019-03-09T10:33:38.606Z,11.48
2019-03-09T10:34:38.541Z,11.43
2019-03-09T10:35:38.478Z,11.56
2019-03-09T10:36:38.414Z,11.62
2019-03-09T10:37:38.351Z,11.49
2019-03-09T10:38:38.286Z,11.51
2019-03-09T10:39:38.226Z,11.62
2019-03-09T10:40:38.160Z,11.56
2019-03-09T10:41:38.099Z,11.67
2019-03-09T10:42:38.032Z,11.74
2019-03-09T10:43:37.971Z,11.70
2019-03-09T10:44:37.911Z,11.62
2019-03-09T10:45:37.844Z,11.61
2019-03-09T10:46:37.780Z,11.74
2019-03-09T10:47:37.717Z,11.80
2019-03-09T10:48:37.653Z,11.84
2019-03-09T10:49:37.592Z,11.84
2019-03-09T10:50:37.524Z,11.79
2019-03-09T10:51:37.463Z,11.79
2019-03-09T10:52:37.398Z,11.73
2019-03-09T10:53:37.337Z,11.80
2019-03-09T10:54:37.272Z,11.84
2019-03-09T10:55:37.214Z,11.85
2019-03-09T10:56:37.147Z,11.97
2019-03-09T10:57:37.083Z,11.91
2019-03-09T10:58:37.021Z,11.85
2019-03-09T10:59:36.959Z,11.87
2019-03-09T11:00:36.891Z,11.74
2019-03-09T11:01:36.833Z,11.52
2019-03-09T11:02:37.709Z,11.48
2019-03-09T11:03:36.703Z,11.52
2019-03-09T11:04:36.641Z,11.58
2019-03-09T11:05:36.580Z,11.62
2019-03-09T11:06:36.513Z,11.62
2019-03-09T11:07:36.450Z,11.70
2019-03-09T11:08:36.388Z,11.71
2019-03-09T11:09:36.323Z,11.64
2019-03-09T11:10:36.261Z,11.61
2019-03-09T11:11:36.201Z,11.58
2019-03-09T11:12:36.135Z,11.55
2019-03-09T11:13:36.070Z,11.54
2019-03-09T11:14:36.040Z,11.54
2019-03-09T11:15:37.651Z,11.54
2019-03-09T11:16:35.881Z,11.55
2019-03-09T11:17:35.824Z,11.48
2019-03-09T11:18:35.754Z,11.38
2019-03-09T11:19:35.692Z,11.36
2019-03-09T11:20:35.630Z,11.31
2019-03-09T11:21:35.563Z,11.34
2019-03-09T11:22:35.501Z,11.27
2019-03-09T11:23:35.460Z,11.43
2019-03-09T11:24:35.373Z,11.49
2019-03-09T11:25:35.351Z,11.54
2019-03-09T11:26:35.247Z,11.55
2019-03-09T11:27:35.195Z,11.54
2019-03-09T11:28:35.119Z,11.49
2019-03-09T11:29:35.052Z,11.40
2019-03-09T11:30:34.995Z,11.37
2019-03-09T11:31:34.931Z,11.43
2019-03-09T11:32:34.865Z,11.37
2019-03-09T11:33:34.802Z,11.41
2019-03-09T11:34:34.740Z,11.40
2019-03-09T11:35:34.677Z,11.54
2019-03-09T11:36:34.612Z,11.36
2019-03-09T11:37:34.551Z,11.41
2019-03-09T11:38:34.487Z,11.49
2019-03-09T11:39:34.424Z,11.48
2019-03-09T11:40:34.356Z,11.45
2019-03-09T11:41:34.300Z,11.33
2019-03-09T11:42:34.229Z,11.33
2019-03-09T11:43:34.168Z,11.52
2019-03-09T11:44:34.117Z,11.58
2019-03-09T11:45:34.040Z,11.56
2019-03-09T11:46:33.977Z,11.62
2019-03-09T11:47:33.913Z,11.82
2019-03-09T11:48:33.850Z,11.77
2019-03-09T11:49:33.789Z,11.91
2019-03-09T11:50:33.724Z,11.95
2019-03-09T11:51:33.661Z,11.88
2019-03-09T11:52:33.596Z,11.91
2019-03-09T11:53:33.533Z,11.95
2019-03-09T11:54:33.473Z,11.99
2019-03-09T11:55:33.410Z,11.99
2019-03-09T11:56:33.348Z,12.26
2019-03-09T11:57:33.280Z,12.15
2019-03-09T11:58:33.213Z,12.18
2019-03-09T11:59:33.155Z,12.26
2019-03-09T12:00:33.091Z,12.28
2019-03-09T12:01:33.029Z,12.36
2019-03-09T12:02:38.785Z,12.32
2019-03-09T12:03:32.904Z,12.30
2019-03-09T12:04:32.837Z,12.46
2019-03-09T12:05:32.774Z,12.46
2019-03-09T12:06:32.712Z,12.44
2019-03-09T12:07:32.648Z,12.40
2019-03-09T12:08:32.586Z,12.36
2019-03-09T12:09:32.523Z,12.38
2019-03-09T12:10:32.460Z,12.58
2019-03-09T12:11:32.401Z,12.65
2019-03-09T12:12:32.336Z,12.76
2019-03-09T12:13:32.268Z,12.77
2019-03-09T12:14:32.208Z,12.65
2019-03-09T12:15:32.157Z,12.53
2019-03-09T12:16:32.080Z,12.50
2019-03-09T12:17:32.019Z,12.54
2019-03-09T12:18:31.961Z,12.53
2019-03-09T12:19:31.892Z,12.48
2019-03-09T12:20:31.831Z,12.40
2019-03-09T12:21:31.775Z,12.43
2019-03-09T12:22:31.703Z,12.53
2019-03-09T12:23:31.643Z,12.50
2019-03-09T12:24:31.578Z,12.33
2019-03-09T12:25:31.517Z,12.33
2019-03-09T12:26:31.453Z,12.40
2019-03-09T12:27:31.395Z,12.50
2019-03-09T12:28:31.329Z,12.46
2019-03-09T12:29:31.266Z,12.50
2019-03-09T12:30:31.203Z,12.53
2019-03-09T12:31:31.139Z,12.61
2019-03-09T12:32:31.076Z,12.36
2019-03-09T12:33:31.014Z,12.40
2019-03-09T12:34:30.950Z,12.29
2019-03-09T12:35:30.891Z,12.14
2019-03-09T12:36:30.826Z,12.22
2019-03-09T12:37:30.764Z,12.28
2019-03-09T12:38:30.702Z,12.23
2019-03-09T12:39:30.641Z,12.26
2019-03-09T12:40:30.574Z,12.11
2019-03-09T12:41:30.511Z,12.14
2019-03-09T12:42:30.451Z,12.15
2019-03-09T12:43:30.384Z,12.18
2019-03-09T12:44:30.322Z,12.17
2019-03-09T12:45:30.278Z,12.14
2019-03-09T12:46:30.194Z,12.11
2019-03-09T12:47:30.183Z,12.03
2019-03-09T12:48:30.070Z,12.03
2019-03-09T12:49:30.007Z,12.00
2019-03-09T12:50:29.948Z,11.91
2019-03-09T12:51:29.880Z,11.93
2019-03-09T12:52:29.817Z,11.91
2019-03-09T12:53:29.760Z,11.95
2019-03-09T12:54:29.691Z,11.87
2019-03-09T12:55:29.628Z,11.87
2019-03-09T12:56:29.563Z,11.89
2019-03-09T12:57:29.501Z,11.91
2019-03-09T12:58:29.439Z,11.85
2019-03-09T12:59:29.375Z,11.84
2019-03-09T13:00:29.312Z,11.88
2019-03-09T13:01:29.249Z,11.84
2019-03-09T13:02:29.186Z,11.85
2019-03-09T13:03:29.122Z,11.93
2019-03-09T13:04:29.059Z,11.89
2019-03-09T13:05:29.001Z,11.88
2019-03-09T13:06:28.931Z,11.93
2019-03-09T13:07:28.872Z,11.85
2019-03-09T13:08:28.806Z,11.97
2019-03-09T13:09:28.742Z,11.77